Time;durP1;ratioP1;P1;durP2;ratioP2;P2;SDS_P1;SDS_P2;PMS_P1;PMS_P2;Temp;Humidity;BMP_temperature;BMP_pressure;BME280_temperature;BME280_humidity;BME280_pressure;Samples;Min_cycle;Max_cycle;Signal;HPM_P1;HPM_P2
2021/12/11 00:00:12;;;;;;;;;;;;;;;0.88;100.00;100097.91;5110688;28;20363;-76
2021/12/11 00:02:38;;;;;;;;;;;;;;;0.90;100.00;100117.88;5110597;28;19954;-76
2021/12/11 00:05:03;;;;;;;;;;;;;;;0.93;100.00;100111.53;5110221;28;19916;-76
2021/12/11 00:07:29;;;;;;;;;;;;;;;0.93;100.00;100120.25;5110526;27;20345;-76
2021/12/11 00:10:04;;;;;;;;;;;;;;;0.92;100.00;100120.38;5110404;28;19911;-76
2021/12/11 00:12:34;;;;;;;;;;;;;;;0.92;100.00;100115.97;5109447;28;19912;-75
2021/12/11 00:15:09;;;;;;;;;;;;;;;0.87;100.00;100123.34;5092192;28;20245;-76
2021/12/11 00:17:35;;;;;;;;;;;;;;;0.86;100.00;100133.97;5109237;28;19919;-76
2021/12/11 00:20:03;;;;;;;;;;;;;;;0.90;100.00;100138.06;5109319;28;19907;-76
2021/12/11 00:22:29;;;;;;;;;;;;;;;0.88;100.00;100140.78;5110072;28;20248;-76
2021/12/11 00:25:09;;;;;;;;;;;;;;;0.92;100.00;100144.03;5109718;28;19923;-76
2021/12/11 00:27:35;;;;;;;;;;;;;;;0.95;100.00;100157.78;5109031;28;20360;-76
2021/12/11 00:30:01;;;;;;;;;;;;;;;0.96;100.00;100163.88;5092399;28;19907;-76
2021/12/11 00:32:28;;;;;;;;;;;;;;;0.96;100.00;100153.34;5108361;28;20322;-76
2021/12/11 00:34:55;;;;;;;;;;;;;;;0.98;100.00;100156.69;5108515;28;19915;-76
2021/12/11 00:37:23;;;;;;;;;;;;;;;1.00;100.00;100165.31;5091931;28;19915;-76
2021/12/11 00:39:48;;;;;;;;;;;;;;;1.02;100.00;100168.66;5092018;28;20064;-76
2021/12/11 00:42:15;;;;;;;;;;;;;;;0.98;100.00;100172.47;5109444;28;20010;-76
2021/12/11 00:44:46;;;;;;;;;;;;;;;0.96;100.00;100177.00;5108362;28;20269;-76
2021/12/11 00:47:17;;;;;;;;;;;;;;;0.91;100.00;100174.72;5109830;28;19968;-76
2021/12/11 00:49:45;;;;;;;;;;;;;;;0.91;100.00;100181.78;5108767;28;19916;-76
2021/12/11 00:52:10;;;;;;;;;;;;;;;0.91;100.00;100187.88;5108767;28;20000;-76
2021/12/11 00:54:40;;;;;;;;;;;;;;;0.89;100.00;100189.78;5091399;28;20018;-76
2021/12/11 00:57:05;;;;;;;;;;;;;;;0.90;100.00;100190.63;5108637;28;20315;-76
2021/12/11 00:59:31;;;;;;;;;;;;;;;0.89;100.00;100202.94;5109778;28;19912;-76
2021/12/11 01:01:58;;;;;;;;;;;;;;;0.94;100.00;100205.22;5108579;28;20340;-76
2021/12/11 01:04:25;;;;;;;;;;;;;;;0.94;100.00;100213.09;5091381;28;19967;-76
2021/12/11 01:06:55;;;;;;;;;;;;;;;0.98;100.00;100231.16;5108865;28;19919;-76
2021/12/11 01:09:41;;;;;;;;;;;;;;;0.93;100.00;100214.03;5109294;28;20363;-76
2021/12/11 01:12:12;;;;;;;;;;;;;;;0.93;100.00;100224.56;5107888;28;19918;-76
2021/12/11 01:15:06;;;;;;;;;;;;;;;0.94;100.00;100228.88;5108119;28;19985;-76
2021/12/11 01:17:42;;;;;;;;;;;;;;;0.96;100.00;100229.56;5106937;28;19919;-76
2021/12/11 01:20:18;;;;;;;;;;;;;;;0.96;100.00;100230.44;5108412;28;19920;-76
2021/12/11 01:22:44;;;;;;;;;;;;;;;0.99;100.00;100229.38;5109273;28;19919;-76
2021/12/11 01:25:14;;;;;;;;;;;;;;;0.98;100.00;100231.16;5108004;28;20245;-76
2021/12/11 01:27:41;;;;;;;;;;;;;;;0.98;100.00;100227.69;5091400;28;19911;-76
2021/12/11 01:30:08;;;;;;;;;;;;;;;1.00;100.00;100233.66;5091464;28;19907;-76
2021/12/11 01:32:34;;;;;;;;;;;;;;;1.01;100.00;100235.34;5108279;28;19915;-76
2021/12/11 01:35:00;;;;;;;;;;;;;;;1.02;100.00;100237.03;5109071;28;19908;-76
2021/12/11 01:37:27;;;;;;;;;;;;;;;1.06;100.00;100243.72;5109214;28;19938;-76
2021/12/11 01:39:52;;;;;;;;;;;;;;;1.09;100.00;100247.94;5108200;28;20465;-76
2021/12/11 01:42:20;;;;;;;;;;;;;;;1.10;100.00;100249.59;5108115;28;19973;-76
2021/12/11 01:44:47;;;;;;;;;;;;;;;1.14;100.00;100259.75;5107697;28;19911;-76
2021/12/11 01:47:14;;;;;;;;;;;;;;;1.11;100.00;100246.84;5108330;28;20316;-76
2021/12/11 01:49:41;;;;;;;;;;;;;;;1.14;100.00;100257.13;5109230;28;20372;-76
2021/12/11 01:52:10;;;;;;;;;;;;;;;1.14;100.00;100256.31;5108385;28;19912;-76
2021/12/11 01:54:39;;;;;;;;;;;;;;;1.16;100.00;100259.66;5107684;28;19923;-76
2021/12/11 01:57:09;;;;;;;;;;;;;;;1.16;100.00;100249.97;5108172;28;19911;-76
2021/12/11 01:59:37;;;;;;;;;;;;;;;1.17;100.00;100253.44;5108953;28;19916;-75
2021/12/11 02:02:03;;;;;;;;;;;;;;;1.15;100.00;100250.94;5109024;28;19916;-76
2021/12/11 02:04:33;;;;;;;;;;;;;;;1.14;100.00;100253.69;5107616;28;19915;-76
2021/12/11 02:07:04;;;;;;;;;;;;;;;1.14;100.00;100258.94;5108027;28;19994;-76
2021/12/11 02:09:31;;;;;;;;;;;;;;;1.13;100.00;100254.63;5107998;28;19911;-75
2021/12/11 02:12:04;;;;;;;;;;;;;;;1.11;100.00;100257.38;5108751;28;19911;-76
2021/12/11 02:14:37;;;;;;;;;;;;;;;1.09;100.00;100247.94;5107517;28;20013;-76
2021/12/11 02:17:03;;;;;;;;;;;;;;;1.11;100.00;100252.13;5108343;28;20388;-76
2021/12/11 02:19:32;;;;;;;;;;;;;;;1.13;100.00;100249.38;5094609;28;19911;-76
2021/12/11 02:22:01;;;;;;;;;;;;;;;1.13;100.00;100255.47;5112183;28;19919;-76
2021/12/11 02:24:40;;;;;;;;;;;;;;;1.17;100.00;100261.31;5110496;28;19957;-76
2021/12/11 02:27:12;;;;;;;;;;;;;;;1.10;100.00;100250.44;5111264;28;19912;-76
2021/12/11 02:29:40;;;;;;;;;;;;;;;1.10;100.00;100260.09;5110912;28;20380;-76
2021/12/11 02:32:11;;;;;;;;;;;;;;;1.08;100.00;100252.34;5112720;28;20273;-76
2021/12/11 02:34:40;;;;;;;;;;;;;;;1.09;100.00;100264.53;5112010;28;19934;-76
2021/12/11 02:37:13;;;;;;;;;;;;;;;1.11;100.00;100270.53;5111436;28;20214;-76
2021/12/11 02:39:43;;;;;;;;;;;;;;;1.11;100.00;100272.31;5112326;28;19958;-76
2021/12/11 02:42:13;;;;;;;;;;;;;;;1.11;100.00;100270.53;5111264;28;19916;-76
2021/12/11 02:44:39;;;;;;;;;;;;;;;1.03;100.00;100255.31;5110960;28;19911;-76
2021/12/11 02:47:11;;;;;;;;;;;;;;;1.07;100.00;100266.44;5111274;28;19908;-76
2021/12/11 02:49:57;;;;;;;;;;;;;;;1.12;100.00;100273.97;5111042;28;19922;-76
2021/12/11 02:52:26;;;;;;;;;;;;;;;1.11;100.00;100273.16;5111486;28;20436;-76
2021/12/11 02:55:00;;;;;;;;;;;;;;;1.16;100.00;100273.63;5111861;28;19954;-77
2021/12/11 02:57:37;;;;;;;;;;;;;;;1.11;100.00;100267.88;5111440;27;19912;-76
2021/12/11 03:00:15;;;;;;;;;;;;;;;1.10;100.00;100268.84;5112090;28;20400;-76
2021/12/11 03:02:46;;;;;;;;;;;;;;;1.08;100.00;100257.63;5111536;28;19920;-76
2021/12/11 03:05:14;;;;;;;;;;;;;;;1.10;100.00;100263.59;5093514;28;19915;-76
2021/12/11 03:07:44;;;;;;;;;;;;;;;1.15;100.00;100271.97;5111716;28;19964;-76
2021/12/11 03:10:12;;;;;;;;;;;;;;;1.13;100.00;100265.16;5110553;28;19911;-76
2021/12/11 03:12:38;;;;;;;;;;;;;;;1.07;100.00;100261.19;5110783;28;20248;-76
2021/12/11 03:15:04;;;;;;;;;;;;;;;1.07;100.00;100261.19;5095934;28;19961;-76
2021/12/11 03:17:30;;;;;;;;;;;;;;;1.10;100.00;100266.22;5118057;28;19911;-76
2021/12/11 03:19:55;;;;;;;;;;;;;;;1.04;100.00;100256.97;5110288;28;20010;-76
2021/12/11 03:22:27;;;;;;;;;;;;;;;1.02;100.00;100258.06;5110589;28;19926;-76
2021/12/11 03:24:53;;;;;;;;;;;;;;;1.03;100.00;100259.72;5111053;28;19915;-76
2021/12/11 03:27:19;;;;;;;;;;;;;;;1.01;100.00;100257.22;5110459;28;19911;-76
2021/12/11 03:29:44;;;;;;;;;;;;;;;0.98;100.00;100257.47;5110393;28;19955;-76
2021/12/11 03:32:11;;;;;;;;;;;;;;;0.99;100.00;100264.38;5110413;28;20355;-76
2021/12/11 03:34:37;;;;;;;;;;;;;;;0.98;100.00;100260.09;5092839;28;19964;-76
2021/12/11 03:37:04;;;;;;;;;;;;;;;0.95;100.00;100257.66;5110133;28;19923;-76
2021/12/11 03:39:31;;;;;;;;;;;;;;;0.97;100.00;100266.28;5110431;28;19912;-77
2021/12/11 03:41:57;;;;;;;;;;;;;;;0.99;100.00;100266.19;5110117;28;20306;-76
2021/12/11 03:44:28;;;;;;;;;;;;;;;1.00;100.00;100263.41;5109659;28;19915;-76
2021/12/11 03:46:54;;;;;;;;;;;;;;;0.99;100.00;100268.81;5109987;28;19915;-76
2021/12/11 03:49:20;;;;;;;;;;;;;;;0.99;100.00;100268.81;5110887;28;19911;-76
2021/12/11 03:51:47;;;;;;;;;;;;;;;1.00;100.00;100270.47;5109693;28;19919;-76
2021/12/11 03:54:15;;;;;;;;;;;;;;;0.98;100.00;100272.38;5109530;28;19915;-76
2021/12/11 03:56:41;;;;;;;;;;;;;;;1.02;100.00;100289.59;5092803;28;19912;-76
2021/12/11 03:59:10;;;;;;;;;;;;;;;1.07;100.00;100284.00;5109774;28;19912;-76
2021/12/11 04:01:40;;;;;;;;;;;;;;;1.04;100.00;100282.44;5109666;28;19907;-75
2021/12/11 04:04:08;;;;;;;;;;;;;;;1.10;100.00;100289.03;5109356;28;19922;-76
2021/12/11 04:06:33;;;;;;;;;;;;;;;1.07;100.00;100282.22;5109795;28;20374;-76
2021/12/11 04:09:00;;;;;;;;;;;;;;;1.11;100.00;100278.41;5109524;28;19938;-76
2021/12/11 04:11:27;;;;;;;;;;;;;;;1.12;100.00;100274.81;5092374;28;19908;-76
2021/12/11 04:13:55;;;;;;;;;;;;;;;1.13;100.00;100268.63;5109245;28;19926;-76
2021/12/11 04:16:21;;;;;;;;;;;;;;;1.13;100.00;100273.88;5110647;28;19988;-76
2021/12/11 04:18:47;;;;;;;;;;;;;;;1.16;100.00;100276.28;5109341;28;19913;-76
2021/12/11 04:21:12;;;;;;;;;;;;;;;1.10;100.00;100276.75;5108873;28;19922;-76
2021/12/11 04:23:38;;;;;;;;;;;;;;;1.13;100.00;100281.78;5109181;28;19930;-76
2021/12/11 04:26:04;;;;;;;;;;;;;;;1.10;100.00;100278.50;5091051;28;19926;-76
2021/12/11 04:28:31;;;;;;;;;;;;;;;1.14;100.00;100285.22;5110085;28;20000;-76
2021/12/11 04:31:03;;;;;;;;;;;;;;;1.08;100.00;100286.53;5109214;28;19908;-76
2021/12/11 04:33:30;;;;;;;;;;;;;;;1.12;100.00;100290.59;5108224;28;20127;-76
2021/12/11 04:35:55;;;;;;;;;;;;;;;1.09;100.00;100303.13;5091952;28;20333;-76
2021/12/11 04:38:20;;;;;;;;;;;;;;;1.03;100.00;100299.16;5092086;28;19927;-76
2021/12/11 04:40:51;;;;;;;;;;;;;;;1.04;100.00;100299.03;5109895;28;19915;-76
2021/12/11 04:43:19;;;;;;;;;;;;;;;1.09;100.00;100311.03;5108948;28;20359;-76
2021/12/11 04:45:47;;;;;;;;;;;;;;;1.07;100.00;100313.75;5091769;28;19994;-76
2021/12/11 04:48:33;;;;;;;;;;;;;;;1.07;100.00;100297.97;5109885;28;19934;-76
2021/12/11 04:51:06;;;;;;;;;;;;;;;1.01;100.00;100294.03;5109854;28;19915;-76
2021/12/11 05:02:05;;;;;;;;;;;;;;;1.09;100.00;100305.78;5109665;28;20014;-75
2021/12/11 05:04:43;;;;;;;;;;;;;;;1.11;100.00;100309.97;5108287;28;19911;-76
2021/12/11 05:09:57;;;;;;;;;;;;;;;1.17;100.00;100314.78;5109568;28;20419;-76
2021/12/11 05:14:51;;;;;;;;;;;;;;;1.07;100.00;100313.75;5108051;28;19994;-76
2021/12/11 05:17:17;;;;;;;;;;;;;;;1.06;100.00;100317.34;5109559;28;20029;-76
2021/12/11 05:19:43;;;;;;;;;;;;;;;1.12;100.00;100332.66;5109616;28;19912;-76
2021/12/11 05:22:09;;;;;;;;;;;;;;;1.12;100.00;100316.88;5108195;28;19916;-76
2021/12/11 05:24:36;;;;;;;;;;;;;;;1.10;100.00;100317.94;5109107;28;19912;-76
2021/12/11 05:27:02;;;;;;;;;;;;;;;1.06;100.00;100314.72;5108271;28;20260;-76
2021/12/11 05:29:28;;;;;;;;;;;;;;;1.07;100.00;100324.28;5109287;28;19997;-76
2021/12/11 05:31:54;;;;;;;;;;;;;;;1.10;100.00;100317.94;5091194;28;19916;-76
2021/12/11 05:34:19;;;;;;;;;;;;;;;1.02;100.00;100311.47;5107934;28;19922;-76
2021/12/11 05:36:45;;;;;;;;;;;;;;;1.09;100.00;100330.25;5091217;28;19908;-76
2021/12/11 05:39:14;;;;;;;;;;;;;;;1.08;100.00;100327.72;5109053;28;19912;-76
2021/12/11 05:41:40;;;;;;;;;;;;;;;0.99;100.00;100332.72;5108097;28;19916;-76
2021/12/11 05:44:05;;;;;;;;;;;;;;;1.03;100.00;100344.72;5107809;28;20364;-76
2021/12/11 05:46:31;;;;;;;;;;;;;;;1.02;100.00;100353.53;5108946;28;19981;-76
2021/12/11 05:48:56;;;;;;;;;;;;;;;1.02;100.00;100352.69;5108023;28;19924;-76
2021/12/11 05:51:22;;;;;;;;;;;;;;;1.05;100.00;100347.19;5109102;28;19981;-76
2021/12/11 05:53:49;;;;;;;;;;;;;;;1.12;100.00;100366.84;5110950;28;19915;-76
2021/12/11 05:56:15;;;;;;;;;;;;;;;1.05;100.00;100353.31;5113025;28;19923;-76
2021/12/11 06:01:19;;;;;;;;;;;;;;;1.00;100.00;100341.44;5111983;28;19919;-76
2021/12/11 06:03:45;;;;;;;;;;;;;;;1.04;100.00;100345.53;5111649;28;19916;-76
2021/12/11 06:06:11;;;;;;;;;;;;;;;1.01;100.00;100346.59;5112016;28;20364;-76
2021/12/11 06:08:36;;;;;;;;;;;;;;;0.99;100.00;100343.25;5111838;28;19911;-76
2021/12/11 06:11:03;;;;;;;;;;;;;;;1.03;100.00;100343.84;5111899;28;19919;-76
2021/12/11 06:13:29;;;;;;;;;;;;;;;0.98;100.00;100336.31;5112486;28;20382;-76
2021/12/11 06:15:55;;;;;;;;;;;;;;;0.98;100.00;100338.09;5111645;28;19998;-76
2021/12/11 06:18:21;;;;;;;;;;;;;;;0.94;100.00;100336.66;5112621;28;20396;-76
2021/12/11 06:20:47;;;;;;;;;;;;;;;0.92;100.00;100335.91;5111848;28;19975;-76
2021/12/11 06:23:13;;;;;;;;;;;;;;;0.87;100.00;100349.38;5112410;28;19920;-76
2021/12/11 06:25:39;;;;;;;;;;;;;;;0.75;100.00;100343.22;5112250;28;19911;-76
2021/12/11 06:28:05;;;;;;;;;;;;;;;0.66;100.00;100351.75;5111651;28;19915;-76
2021/12/11 06:30:31;;;;;;;;;;;;;;;0.62;100.00;100351.13;5111403;28;20340;-76
2021/12/11 06:32:56;;;;;;;;;;;;;;;0.55;100.00;100357.75;5094541;28;19908;-76
2021/12/11 06:35:28;;;;;;;;;;;;;;;0.55;100.00;100376.16;5110841;28;20319;-76
2021/12/11 06:37:54;;;;;;;;;;;;;;;0.59;100.00;100382.03;5111272;28;20271;-76
2021/12/11 06:40:20;;;;;;;;;;;;;;;0.61;100.00;100407.25;5111163;28;19919;-76
2021/12/11 06:42:46;;;;;;;;;;;;;;;0.67;100.00;100421.72;5110877;28;19923;-76
2021/12/11 06:45:11;;;;;;;;;;;;;;;0.64;100.00;100416.69;5110989;28;19919;-76
2021/12/11 06:47:38;;;;;;;;;;;;;;;0.64;100.00;100429.84;5094219;28;19916;-76
2021/12/11 06:50:04;;;;;;;;;;;;;;;0.60;100.00;100426.56;5111137;28;20290;-76
2021/12/11 06:52:30;;;;;;;;;;;;;;;0.66;100.00;100445.50;5112063;28;19911;-76
2021/12/11 06:54:55;;;;;;;;;;;;;;;0.62;100.00;100450.13;5110631;28;19922;-76
2021/12/11 06:57:21;;;;;;;;;;;;;;;0.56;100.00;100445.28;5111067;28;19992;-76
2021/12/11 06:59:47;;;;;;;;;;;;;;;0.52;100.00;100464.84;5110885;28;20376;-76
2021/12/11 07:02:14;;;;;;;;;;;;;;;0.46;100.00;100457.38;5111120;28;19919;-76
2021/12/11 07:04:39;;;;;;;;;;;;;;;0.40;100.00;100462.09;5109404;28;19911;-76
2021/12/11 07:07:05;;;;;;;;;;;;;;;0.35;100.00;100469.47;5111709;28;19923;-76
2021/12/11 07:09:31;;;;;;;;;;;;;;;0.33;100.00;100479.22;5110690;28;20317;-76
2021/12/11 07:11:56;;;;;;;;;;;;;;;0.31;100.00;100491.63;5110667;28;20176;-76
2021/12/11 07:14:24;;;;;;;;;;;;;;;0.35;100.00;100497.47;5093350;28;19920;-76
2021/12/11 07:16:50;;;;;;;;;;;;;;;0.26;100.00;100500.72;5112167;28;20306;-76
2021/12/11 07:19:15;;;;;;;;;;;;;;;0.22;100.00;100515.84;5114164;28;19907;-76
2021/12/11 07:21:42;;;;;;;;;;;;;;;0.25;100.00;100525.31;5110437;28;19928;-76
2021/12/11 07:24:09;;;;;;;;;;;;;;;0.20;100.00;100528.25;5110632;28;20036;-76
2021/12/11 07:26:35;;;;;;;;;;;;;;;0.18;100.00;100538.84;5111449;28;19980;-76
2021/12/11 07:29:03;;;;;;;;;;;;;;;0.18;100.00;100549.34;5110828;28;19919;-76
2021/12/11 07:31:29;;;;;;;;;;;;;;;0.11;100.00;100547.22;5110440;28;20295;-76
2021/12/11 07:33:55;;;;;;;;;;;;;;;0.12;100.00;100551.53;5092958;28;19915;-76
2021/12/11 07:36:21;;;;;;;;;;;;;;;0.15;100.00;100564.47;5110422;28;20359;-76
2021/12/11 07:38:46;;;;;;;;;;;;;;;0.15;100.00;100573.19;5110151;28;20257;-76
2021/12/11 07:41:13;;;;;;;;;;;;;;;0.16;100.00;100584.50;5110193;28;19915;-76
2021/12/11 07:43:40;;;;;;;;;;;;;;;0.16;100.00;100574.00;5109774;28;19920;-76
2021/12/11 07:46:07;;;;;;;;;;;;;;;0.11;100.00;100579.56;5111110;28;19964;-75
2021/12/11 07:48:32;;;;;;;;;;;;;;;0.14;100.00;100591.63;5112430;28;19962;-76
2021/12/11 07:50:58;;;;;;;;;;;;;;;0.13;100.00;100596.06;5111142;28;19963;-76
2021/12/11 07:53:24;;;;;;;;;;;;;;;0.20;100.00;100612.25;5110990;28;19961;-76
2021/12/11 07:55:49;;;;;;;;;;;;;;;0.34;100.00;100635.00;5110769;28;19919;-76
2021/12/11 07:58:15;;;;;;;;;;;;;;;0.37;100.00;100633.00;5110969;28;19907;-76
2021/12/11 08:00:41;;;;;;;;;;;;;;;0.47;100.00;100641.16;5112104;28;19916;-76
2021/12/11 08:03:09;;;;;;;;;;;;;;;0.55;100.00;100659.03;5111845;28;19923;-76
2021/12/11 08:05:34;;;;;;;;;;;;;;;0.54;100.00;100655.56;5093622;28;20056;-76
2021/12/11 08:08:02;;;;;;;;;;;;;;;0.68;100.00;100666.94;5110666;28;20010;-76
2021/12/11 08:10:28;;;;;;;;;;;;;;;0.84;100.00;100676.38;5110725;28;19915;-76
2021/12/11 08:12:54;;;;;;;;;;;;;;;0.84;100.00;100659.72;5110580;28;19912;-76
2021/12/11 08:15:19;;;;;;;;;;;;;;;0.96;100.00;100669.44;5110890;28;19911;-76
2021/12/11 08:17:51;;;;;;;;;;;;;;;1.00;100.00;100662.19;5093850;28;19915;-76
2021/12/11 08:20:16;;;;;;;;;;;;;;;1.12;100.00;100661.34;5093721;28;19918;-76
2021/12/11 08:22:42;;;;;;;;;;;;;;;1.16;100.00;100652.31;5110195;28;20712;-76
2021/12/11 08:25:08;;;;;;;;;;;;;;;1.20;100.00;100640.66;5111188;28;19919;-76
2021/12/11 08:27:34;;;;;;;;;;;;;;;1.27;100.00;100634.00;5110680;28;19907;-76
2021/12/11 08:29:59;;;;;;;;;;;;;;;1.35;100.00;100637.91;5109303;28;19912;-76
2021/12/11 08:32:25;;;;;;;;;;;;;;;1.60;100.00;100643.16;5109067;28;19920;-76
2021/12/11 08:34:51;;;;;;;;;;;;;;;1.84;100.00;100647.63;5109923;28;19961;-76
2021/12/11 08:37:18;;;;;;;;;;;;;;;1.83;100.00;100624.91;5109209;28;20256;-76
2021/12/11 08:39:44;;;;;;;;;;;;;;;1.63;100.00;100600.81;5091951;28;19957;-76
2021/12/11 08:42:12;;;;;;;;;;;;;;;1.64;100.00;100585.88;5108983;28;19951;-76
2021/12/11 08:44:39;;;;;;;;;;;;;;;1.63;100.00;100585.03;5091861;28;20385;-76
2021/12/11 08:47:09;;;;;;;;;;;;;;;1.57;100.00;100574.94;5091924;28;20350;-76
2021/12/11 08:49:36;;;;;;;;;;;;;;;1.58;100.00;100576.63;5108866;28;19926;-76
2021/12/11 08:52:10;;;;;;;;;;;;;;;1.58;100.00;100571.34;5108683;28;20268;-77
2021/12/11 08:54:36;;;;;;;;;;;;;;;1.59;100.00;100572.19;5109286;28;19915;-77
2021/12/11 08:57:05;;;;;;;;;;;;;;;1.55;100.00;100579.47;5108775;28;20345;-76
2021/12/11 08:59:32;;;;;;;;;;;;;;;1.60;100.00;100571.25;5109730;28;19912;-77
2021/12/11 09:02:18;;;;;;;;;;;;;;;1.68;100.00;100580.28;5109969;28;20333;-76
2021/12/11 09:04:48;;;;;;;;;;;;;;;1.68;100.00;100580.28;5109378;28;20298;-77
2021/12/11 09:07:22;;;;;;;;;;;;;;;1.78;100.00;100596.28;5108694;28;19911;-76
2021/12/11 09:10:11;;;;;;;;;;;;;;;1.87;100.00;100598.25;5109429;28;19915;-76
2021/12/11 09:12:48;;;;;;;;;;;;;;;1.82;100.00;100589.81;5109494;28;19912;-76
2021/12/11 09:15:19;;;;;;;;;;;;;;;1.97;100.00;100605.50;5091405;28;20022;-76
2021/12/11 09:17:47;;;;;;;;;;;;;;;1.74;100.00;100570.28;5109480;28;19913;-76
2021/12/11 09:20:23;;;;;;;;;;;;;;;1.81;100.00;100584.69;5108088;28;19915;-76
2021/12/11 09:22:51;;;;;;;;;;;;;;;1.84;100.00;100580.03;5108575;28;19915;-76
2021/12/11 09:25:20;;;;;;;;;;;;;;;1.93;100.00;100582.97;5108015;28;19911;-76
2021/12/11 09:27:48;;;;;;;;;;;;;;;1.86;100.00;100577.28;5107219;28;19977;-76
2021/12/11 09:30:13;;;;;;;;;;;;;;;2.00;100.00;100592.94;5108341;28;19973;-77
2021/12/11 09:32:41;;;;;;;;;;;;;;;2.10;100.00;100591.28;5110227;28;20508;-77
2021/12/11 09:35:10;;;;;;;;;;;;;;;2.11;100.00;100593.00;5109006;28;19968;-76
2021/12/11 09:37:36;;;;;;;;;;;;;;;2.07;100.00;100585.44;5108792;28;19930;-76
2021/12/11 09:40:08;;;;;;;;;;;;;;;2.17;100.00;100588.22;5110588;28;20610;-77
2021/12/11 09:42:33;;;;;;;;;;;;;;;2.11;100.00;100579.81;5109420;28;19920;-77
2021/12/11 09:45:02;;;;;;;;;;;;;;;3.02;99.38;100673.28;5109905;28;19922;-76
2021/12/11 09:47:31;;;;;;;;;;;;;;;4.15;98.00;100755.25;5109537;28;19924;-76
2021/12/11 09:50:03;;;;;;;;;;;;;;;4.43;94.70;100709.78;5091021;28;19968;-77
2021/12/11 09:52:29;;;;;;;;;;;;;;;4.85;91.88;100711.72;5090192;28;20289;-76
2021/12/11 09:55:15;;;;;;;;;;;;;;;4.49;89.77;100615.91;5106424;28;20260;-77
2021/12/11 09:57:42;;;;;;;;;;;;;;;3.94;89.06;100564.94;5089199;28;20153;-77
2021/12/11 10:00:11;;;;;;;;;;;;;;;3.68;89.30;100564.41;5108230;28;19919;-77
2021/12/11 10:02:39;;;;;;;;;;;;;;;3.74;89.79;100598.22;5108821;28;19916;-77
2021/12/11 10:05:05;;;;;;;;;;;;;;;3.51;90.14;100571.00;5108855;28;19984;-78
2021/12/11 10:07:39;;;;;;;;;;;;;;;3.47;90.18;100577.50;5108051;28;19911;-77
2021/12/11 10:10:16;;;;;;;;;;;;;;;3.26;90.67;100567.66;5108905;28;20014;-77
2021/12/11 10:12:45;;;;;;;;;;;;;;;3.17;91.25;100576.28;5106870;28;20424;-77
2021/12/11 10:15:15;;;;;;;;;;;;;;;2.93;91.55;100561.41;5107726;28;19926;-76
2021/12/11 10:17:44;;;;;;;;;;;;;;;2.92;92.18;100587.88;5090066;28;19934;-77
2021/12/11 10:20:15;;;;;;;;;;;;;;;2.92;92.62;100596.63;5108075;28;19922;-77
2021/12/11 10:22:42;;;;;;;;;;;;;;;2.81;93.00;100588.72;5107809;28;19927;-76
2021/12/11 10:25:12;;;;;;;;;;;;;;;2.77;93.53;100589.06;5107560;28;19920;-76
2021/12/11 10:27:38;;;;;;;;;;;;;;;2.67;94.21;100596.78;5108105;28;19972;-78
2021/12/11 10:30:05;;;;;;;;;;;;;;;2.50;95.21;100579.63;5107236;28;19911;-79
2021/12/11 10:32:32;;;;;;;;;;;;;;;2.52;95.69;100606.69;5089725;28;20002;-79
2021/12/11 10:35:05;;;;;;;;;;;;;;;2.44;96.61;100607.28;5106292;28;19958;-79
2021/12/11 10:37:35;;;;;;;;;;;;;;;2.29;97.32;100611.88;5089614;28;19969;-79
2021/12/11 10:40:05;;;;;;;;;;;;;;;2.34;98.12;100627.34;5110875;28;19973;-79
2021/12/11 10:42:31;;;;;;;;;;;;;;;2.32;98.46;100624.81;5110717;28;20321;-79
2021/12/11 10:44:58;;;;;;;;;;;;;;;2.43;99.16;100653.00;5110522;28;19999;-79
2021/12/11 10:47:33;;;;;;;;;;;;;;;2.51;99.75;100660.38;5112230;28;20381;-79
2021/12/11 10:49:59;;;;;;;;;;;;;;;2.56;100.00;100679.31;5111178;28;20380;-79
2021/12/11 10:52:27;;;;;;;;;;;;;;;2.60;100.00;100683.41;5112335;28;20018;-79
2021/12/11 10:54:54;;;;;;;;;;;;;;;2.58;100.00;100681.84;5111552;28;19916;-78
2021/12/11 10:57:20;;;;;;;;;;;;;;;2.61;100.00;100695.63;5112050;28;19915;-78
2021/12/11 10:59:48;;;;;;;;;;;;;;;2.61;100.00;100698.28;5110987;28;19998;-78
2021/12/11 11:02:15;;;;;;;;;;;;;;;2.52;100.00;100683.97;5111718;28;20027;-78
2021/12/11 11:04:42;;;;;;;;;;;;;;;2.63;100.00;100706.06;5110763;28;20214;-79
2021/12/11 11:07:08;;;;;;;;;;;;;;;2.66;100.00;100711.13;5111797;28;19954;-76
2021/12/11 11:09:34;;;;;;;;;;;;;;;2.56;100.00;100696.94;5111702;28;19990;-76
2021/12/11 11:12:01;;;;;;;;;;;;;;;2.48;100.00;100693.06;5110112;28;20010;-76
2021/12/11 11:14:27;;;;;;;;;;;;;;;2.45;100.00;100695.91;5093413;28;19918;-75
2021/12/11 11:16:59;;;;;;;;;;;;;;;2.41;100.00;100702.38;5110285;28;19924;-75
2021/12/11 11:19:25;;;;;;;;;;;;;;;2.45;100.00;100719.63;5110604;28;19922;-75
2021/12/11 11:21:56;;;;;;;;;;;;;;;2.35;100.00;100707.25;5111845;28;19955;-76
2021/12/11 11:24:23;;;;;;;;;;;;;;;2.36;100.00;100725.56;5110313;28;19986;-76
2021/12/11 11:26:49;;;;;;;;;;;;;;;2.43;100.00;100732.06;5093535;28;19914;-75
2021/12/11 11:29:16;;;;;;;;;;;;;;;2.44;100.00;100736.41;5096768;28;19911;-75
2021/12/11 11:31:43;;;;;;;;;;;;;;;2.45;100.00;100756.50;5111689;28;19922;-76
2021/12/11 11:34:11;;;;;;;;;;;;;;;2.49;100.00;100768.53;5111439;28;20274;-76
2021/12/11 11:36:37;;;;;;;;;;;;;;;2.48;100.00;100769.50;5110344;28;19919;-75
2021/12/11 11:39:05;;;;;;;;;;;;;;;2.57;100.00;100793.50;5109533;28;19923;-75
2021/12/11 11:41:33;;;;;;;;;;;;;;;2.40;100.00;100773.63;5111046;28;19923;-75
2021/12/11 11:43:59;;;;;;;;;;;;;;;2.42;100.00;100793.63;5092848;28;19919;-75
2021/12/11 11:46:25;;;;;;;;;;;;;;;2.35;100.00;100786.28;5109899;28;20002;-75
2021/12/11 11:48:51;;;;;;;;;;;;;;;2.49;100.00;100802.78;5109777;28;19999;-76
2021/12/11 11:51:20;;;;;;;;;;;;;;;2.45;100.00;100803.94;5110581;28;20062;-76
2021/12/11 11:53:45;;;;;;;;;;;;;;;2.52;100.00;100810.47;5109481;28;19912;-75
2021/12/11 11:56:12;;;;;;;;;;;;;;;2.60;100.00;100822.25;5092845;28;19911;-75
2021/12/11 11:58:38;;;;;;;;;;;;;;;2.57;100.00;100822.47;5109692;28;19916;-75
2021/12/11 12:01:07;;;;;;;;;;;;;;;2.51;100.00;100821.97;5110714;28;19934;-76
2021/12/11 12:03:33;;;;;;;;;;;;;;;2.50;100.00;100812.38;5109377;28;19919;-76
2021/12/11 12:06:00;;;;;;;;;;;;;;;2.55;100.00;100825.22;5109642;28;20394;-75
2021/12/11 12:08:29;;;;;;;;;;;;;;;2.63;100.00;100827.34;5109872;28;19920;-75
2021/12/11 12:10:55;;;;;;;;;;;;;;;2.66;100.00;100832.38;5109443;28;19916;-75
2021/12/11 12:13:24;;;;;;;;;;;;;;;2.67;100.00;100832.28;5109293;28;19912;-74
2021/12/11 12:15:51;;;;;;;;;;;;;;;2.74;100.00;100824.78;5108887;28;19994;-74
2021/12/11 12:18:17;;;;;;;;;;;;;;;2.74;100.00;100830.06;5111260;28;19923;-75
2021/12/11 12:20:42;;;;;;;;;;;;;;;2.80;100.00;100837.50;5110458;28;19955;-75
2021/12/11 12:23:09;;;;;;;;;;;;;;;2.79;100.00;100829.72;5111213;28;19970;-76
2021/12/11 12:25:35;;;;;;;;;;;;;;;2.76;100.00;100807.03;5092902;28;20238;-74
2021/12/11 12:28:01;;;;;;;;;;;;;;;2.80;100.00;100811.13;5111120;28;19908;-74
2021/12/11 12:30:29;;;;;;;;;;;;;;;2.77;100.00;100802.63;5111030;28;19927;-75
2021/12/11 12:32:55;;;;;;;;;;;;;;;2.74;100.00;100793.13;5111012;28;19958;-74
2021/12/11 12:35:22;;;;;;;;;;;;;;;2.75;100.00;100789.53;5110651;28;19915;-74
2021/12/11 12:37:48;;;;;;;;;;;;;;;2.81;100.00;100788.25;5110898;28;19912;-74
2021/12/11 12:40:27;;;;;;;;;;;;;;;2.77;100.00;100776.25;5093282;28;19954;-74
2021/12/11 12:42:55;;;;;;;;;;;;;;;2.69;100.00;100774.16;5108913;28;19935;-74
2021/12/11 12:45:24;;;;;;;;;;;;;;;2.68;100.00;100778.59;5108800;28;20348;-74
2021/12/11 12:47:55;;;;;;;;;;;;;;;2.59;100.00;100767.88;5107843;28;19907;-74
2021/12/11 12:50:23;;;;;;;;;;;;;;;2.58;100.00;100763.56;5108835;28;19923;-74
2021/12/11 12:52:49;;;;;;;;;;;;;;;2.65;100.00;100772.72;5108973;28;20252;-74
2021/12/11 12:55:27;;;;;;;;;;;;;;;2.58;100.00;100771.47;5109399;28;19911;-74
2021/12/11 12:57:54;;;;;;;;;;;;;;;2.49;100.00;100763.25;5108889;28;19962;-74